sensor_id;sensor_type;location;lat;lon;timestamp;P1;durP1;ratioP1;P2;durP2;ratioP2
67363;SDS011;54250;45.572;38.086;2023-05-15T00:00:13;7.20;;;4.03;;
67363;SDS011;54250;45.572;38.086;2023-05-15T00:02:41;9.18;;;4.05;;
67363;SDS011;54250;45.572;38.086;2023-05-15T00:05:09;7.93;;;4.35;;
67363;SDS011;54250;45.572;38.086;2023-05-15T00:07:36;9.80;;;4.55;;
67363;SDS011;54250;45.572;38.086;2023-05-15T00:10:02;10.85;;;5.13;;
67363;SDS011;54250;45.572;38.086;2023-05-15T00:12:29;9.95;;;4.93;;
67363;SDS011;54250;45.572;38.086;2023-05-15T00:14:55;8.10;;;4.75;;
67363;SDS011;54250;45.572;38.086;2023-05-15T00:17:21;8.10;;;4.63;;
67363;SDS011;54250;45.572;38.086;2023-05-15T00:19:47;9.18;;;4.55;;
67363;SDS011;54250;45.572;38.086;2023-05-15T00:22:13;9.40;;;5.07;;
67363;SDS011;54250;45.572;38.086;2023-05-15T00:24:39;6.95;;;4.47;;
67363;SDS011;54250;45.572;38.086;2023-05-15T00:27:05;9.05;;;4.80;;
67363;SDS011;54250;45.572;38.086;2023-05-15T00:29:31;7.85;;;4.60;;
67363;SDS011;54250;45.572;38.086;2023-05-15T00:31:57;10.98;;;4.30;;
67363;SDS011;54250;45.572;38.086;2023-05-15T00:34:24;15.32;;;5.10;;
67363;SDS011;54250;45.572;38.086;2023-05-15T00:36:50;10.30;;;5.28;;
67363;SDS011;54250;45.572;38.086;2023-05-15T00:39:16;20.70;;;5.13;;
67363;SDS011;54250;45.572;38.086;2023-05-15T00:41:42;8.32;;;5.20;;
67363;SDS011;54250;45.572;38.086;2023-05-15T00:44:10;7.57;;;4.43;;
67363;SDS011;54250;45.572;38.086;2023-05-15T00:46:37;12.32;;;4.97;;
67363;SDS011;54250;45.572;38.086;2023-05-15T00:49:04;10.88;;;4.82;;
67363;SDS011;54250;45.572;38.086;2023-05-15T00:51:31;9.68;;;5.30;;
67363;SDS011;54250;45.572;38.086;2023-05-15T00:53:57;14.55;;;5.65;;
67363;SDS011;54250;45.572;38.086;2023-05-15T00:56:24;11.50;;;4.75;;
67363;SDS011;54250;45.572;38.086;2023-05-15T00:58:54;9.93;;;4.70;;
67363;SDS011;54250;45.572;38.086;2023-05-15T01:01:24;9.50;;;5.68;;
67363;SDS011;54250;45.572;38.086;2023-05-15T01:03:50;15.90;;;5.72;;
67363;SDS011;54250;45.572;38.086;2023-05-15T01:06:16;15.75;;;5.90;;
67363;SDS011;54250;45.572;38.086;2023-05-15T01:11:13;17.67;;;5.60;;
67363;SDS011;54250;45.572;38.086;2023-05-15T01:13:40;11.15;;;6.22;;
67363;SDS011;54250;45.572;38.086;2023-05-15T01:16:06;10.45;;;6.03;;
67363;SDS011;54250;45.572;38.086;2023-05-15T01:18:33;11.88;;;6.65;;
67363;SDS011;54250;45.572;38.086;2023-05-15T01:23:44;9.50;;;6.20;;
67363;SDS011;54250;45.572;38.086;2023-05-15T01:26:31;13.38;;;5.65;;
67363;SDS011;54250;45.572;38.086;2023-05-15T01:29:13;10.48;;;6.55;;
67363;SDS011;54250;45.572;38.086;2023-05-15T01:31:49;10.05;;;5.97;;
67363;SDS011;54250;45.572;38.086;2023-05-15T01:34:25;9.50;;;6.30;;
67363;SDS011;54250;45.572;38.086;2023-05-15T01:36:58;11.75;;;6.70;;
67363;SDS011;54250;45.572;38.086;2023-05-15T01:39:28;8.93;;;6.22;;
67363;SDS011;54250;45.572;38.086;2023-05-15T01:42:02;20.58;;;6.93;;
67363;SDS011;54250;45.572;38.086;2023-05-15T01:44:36;11.32;;;6.43;;
67363;SDS011;54250;45.572;38.086;2023-05-15T01:47:08;13.95;;;6.88;;
67363;SDS011;54250;45.572;38.086;2023-05-15T01:49:37;11.27;;;6.35;;
67363;SDS011;54250;45.572;38.086;2023-05-15T01:52:25;12.93;;;5.93;;
67363;SDS011;54250;45.572;38.086;2023-05-15T01:54:55;14.27;;;7.53;;
67363;SDS011;54250;45.572;38.086;2023-05-15T01:57:22;13.85;;;6.72;;
67363;SDS011;54250;45.572;38.086;2023-05-15T01:59:51;13.20;;;7.07;;
67363;SDS011;54250;45.572;38.086;2023-05-15T02:02:18;13.20;;;7.13;;
67363;SDS011;54250;45.572;38.086;2023-05-15T02:04:47;12.45;;;7.05;;
67363;SDS011;54250;45.572;38.086;2023-05-15T02:07:14;24.48;;;7.60;;
67363;SDS011;54250;45.572;38.086;2023-05-15T02:09:41;10.85;;;6.55;;
67363;SDS011;54250;45.572;38.086;2023-05-15T02:12:08;10.90;;;6.55;;
67363;SDS011;54250;45.572;38.086;2023-05-15T02:14:35;15.32;;;7.55;;
67363;SDS011;54250;45.572;38.086;2023-05-15T02:17:03;11.15;;;7.38;;
67363;SDS011;54250;45.572;38.086;2023-05-15T02:19:29;11.98;;;7.20;;
67363;SDS011;54250;45.572;38.086;2023-05-15T02:21:55;15.73;;;8.10;;
67363;SDS011;54250;45.572;38.086;2023-05-15T02:24:21;10.68;;;7.10;;
67363;SDS011;54250;45.572;38.086;2023-05-15T02:37:12;21.70;;;7.78;;
67363;SDS011;54250;45.572;38.086;2023-05-15T02:39:41;15.80;;;7.38;;
67363;SDS011;54250;45.572;38.086;2023-05-15T02:42:11;23.55;;;7.45;;
67363;SDS011;54250;45.572;38.086;2023-05-15T02:44:39;12.52;;;7.75;;
67363;SDS011;54250;45.572;38.086;2023-05-15T02:47:07;13.10;;;7.95;;
67363;SDS011;54250;45.572;38.086;2023-05-15T02:49:33;12.98;;;7.80;;
67363;SDS011;54250;45.572;38.086;2023-05-15T02:52:00;13.15;;;7.75;;
67363;SDS011;54250;45.572;38.086;2023-05-15T02:54:26;19.45;;;6.55;;
67363;SDS011;54250;45.572;38.086;2023-05-15T02:56:52;12.15;;;6.70;;
67363;SDS011;54250;45.572;38.086;2023-05-15T02:59:18;10.38;;;5.10;;
67363;SDS011;54250;45.572;38.086;2023-05-15T03:01:44;15.15;;;4.60;;
67363;SDS011;54250;45.572;38.086;2023-05-15T03:04:14;6.65;;;4.38;;
67363;SDS011;54250;45.572;38.086;2023-05-15T03:06:40;9.05;;;4.90;;
67363;SDS011;54250;45.572;38.086;2023-05-15T03:09:06;10.48;;;4.63;;
67363;SDS011;54250;45.572;38.086;2023-05-15T03:11:32;9.55;;;4.10;;
67363;SDS011;54250;45.572;38.086;2023-05-15T03:13:58;9.75;;;4.00;;
67363;SDS011;54250;45.572;38.086;2023-05-15T03:16:25;7.35;;;3.80;;
67363;SDS011;54250;45.572;38.086;2023-05-15T03:18:53;5.88;;;3.80;;
67363;SDS011;54250;45.572;38.086;2023-05-15T03:21:19;14.77;;;4.47;;
67363;SDS011;54250;45.572;38.086;2023-05-15T03:23:45;14.70;;;4.10;;
67363;SDS011;54250;45.572;38.086;2023-05-15T03:26:11;8.07;;;3.35;;
67363;SDS011;54250;45.572;38.086;2023-05-15T03:28:37;4.90;;;3.35;;
67363;SDS011;54250;45.572;38.086;2023-05-15T03:31:03;7.18;;;3.58;;
67363;SDS011;54250;45.572;38.086;2023-05-15T03:33:30;14.10;;;4.03;;
67363;SDS011;54250;45.572;38.086;2023-05-15T03:35:56;8.18;;;3.70;;
67363;SDS011;54250;45.572;38.086;2023-05-15T03:38:22;7.53;;;4.05;;
67363;SDS011;54250;45.572;38.086;2023-05-15T03:40:48;6.70;;;3.47;;
67363;SDS011;54250;45.572;38.086;2023-05-15T03:43:14;8.98;;;2.95;;
67363;SDS011;54250;45.572;38.086;2023-05-15T03:45:40;8.88;;;3.67;;
67363;SDS011;54250;45.572;38.086;2023-05-15T03:48:06;10.57;;;4.45;;
67363;SDS011;54250;45.572;38.086;2023-05-15T03:50:32;9.70;;;3.92;;
67363;SDS011;54250;45.572;38.086;2023-05-15T03:52:58;16.58;;;4.05;;
67363;SDS011;54250;45.572;38.086;2023-05-15T03:55:25;6.05;;;3.63;;
67363;SDS011;54250;45.572;38.086;2023-05-15T03:57:51;5.82;;;3.30;;
67363;SDS011;54250;45.572;38.086;2023-05-15T04:00:17;6.70;;;3.30;;
67363;SDS011;54250;45.572;38.086;2023-05-15T04:02:43;10.30;;;3.40;;
67363;SDS011;54250;45.572;38.086;2023-05-15T04:05:09;13.52;;;3.30;;
67363;SDS011;54250;45.572;38.086;2023-05-15T04:07:35;3.15;;;2.78;;
67363;SDS011;54250;45.572;38.086;2023-05-15T04:10:05;6.82;;;2.90;;
67363;SDS011;54250;45.572;38.086;2023-05-15T04:12:32;14.23;;;3.08;;
67363;SDS011;54250;45.572;38.086;2023-05-15T04:15:15;4.55;;;2.95;;
67363;SDS011;54250;45.572;38.086;2023-05-15T04:17:42;9.48;;;2.60;;
67363;SDS011;54250;45.572;38.086;2023-05-15T04:20:09;5.13;;;2.50;;
67363;SDS011;54250;45.572;38.086;2023-05-15T04:22:36;5.70;;;2.47;;
67363;SDS011;54250;45.572;38.086;2023-05-15T04:25:02;4.45;;;2.35;;
67363;SDS011;54250;45.572;38.086;2023-05-15T04:27:29;8.55;;;2.50;;
67363;SDS011;54250;45.572;38.086;2023-05-15T04:29:55;5.80;;;2.65;;
67363;SDS011;54250;45.572;38.086;2023-05-15T04:32:21;4.30;;;2.30;;
67363;SDS011;54250;45.572;38.086;2023-05-15T04:34:47;5.55;;;2.20;;
67363;SDS011;54250;45.572;38.086;2023-05-15T04:37:14;13.07;;;3.10;;
67363;SDS011;54250;45.572;38.086;2023-05-15T04:39:40;7.40;;;2.70;;
67363;SDS011;54250;45.572;38.086;2023-05-15T04:42:06;12.10;;;2.60;;
67363;SDS011;54250;45.572;38.086;2023-05-15T04:44:32;7.70;;;2.00;;
67363;SDS011;54250;45.572;38.086;2023-05-15T04:46:58;3.80;;;2.35;;
67363;SDS011;54250;45.572;38.086;2023-05-15T04:49:24;4.30;;;2.35;;
67363;SDS011;54250;45.572;38.086;2023-05-15T04:51:50;9.98;;;2.50;;
67363;SDS011;54250;45.572;38.086;2023-05-15T04:54:16;6.88;;;2.40;;
67363;SDS011;54250;45.572;38.086;2023-05-15T04:56:42;3.30;;;2.40;;
67363;SDS011;54250;45.572;38.086;2023-05-15T04:59:09;6.43;;;2.80;;
67363;SDS011;54250;45.572;38.086;2023-05-15T05:01:35;9.18;;;2.30;;
67363;SDS011;54250;45.572;38.086;2023-05-15T05:04:01;11.75;;;2.40;;
67363;SDS011;54250;45.572;38.086;2023-05-15T05:06:27;10.50;;;2.20;;
67363;SDS011;54250;45.572;38.086;2023-05-15T05:08:53;8.52;;;2.25;;
67363;SDS011;54250;45.572;38.086;2023-05-15T05:11:19;6.68;;;2.38;;
67363;SDS011;54250;45.572;38.086;2023-05-15T05:13:46;4.60;;;2.40;;
67363;SDS011;54250;45.572;38.086;2023-05-15T05:16:12;2.75;;;1.90;;
67363;SDS011;54250;45.572;38.086;2023-05-15T05:18:38;3.42;;;1.92;;
67363;SDS011;54250;45.572;38.086;2023-05-15T05:21:04;9.38;;;2.40;;
67363;SDS011;54250;45.572;38.086;2023-05-15T05:23:30;6.72;;;2.13;;
67363;SDS011;54250;45.572;38.086;2023-05-15T05:25:56;6.20;;;2.13;;
67363;SDS011;54250;45.572;38.086;2023-05-15T05:28:23;8.25;;;2.17;;
67363;SDS011;54250;45.572;38.086;2023-05-15T05:30:49;9.85;;;2.00;;
67363;SDS011;54250;45.572;38.086;2023-05-15T05:33:15;3.97;;;1.55;;
67363;SDS011;54250;45.572;38.086;2023-05-15T05:35:41;6.18;;;1.58;;
67363;SDS011;54250;45.572;38.086;2023-05-15T05:38:07;3.20;;;1.70;;
67363;SDS011;54250;45.572;38.086;2023-05-15T05:40:33;6.60;;;1.75;;
67363;SDS011;54250;45.572;38.086;2023-05-15T05:43:00;3.45;;;1.65;;
67363;SDS011;54250;45.572;38.086;2023-05-15T05:45:26;5.50;;;2.30;;
67363;SDS011;54250;45.572;38.086;2023-05-15T05:47:56;2.05;;;1.67;;
67363;SDS011;54250;45.572;38.086;2023-05-15T05:50:22;8.15;;;2.00;;
67363;SDS011;54250;45.572;38.086;2023-05-15T05:52:48;9.02;;;1.58;;
67363;SDS011;54250;45.572;38.086;2023-05-15T05:55:14;5.32;;;1.75;;
67363;SDS011;54250;45.572;38.086;2023-05-15T05:57:41;3.10;;;1.70;;
67363;SDS011;54250;45.572;38.086;2023-05-15T06:00:07;6.00;;;1.92;;
67363;SDS011;54250;45.572;38.086;2023-05-15T06:02:37;6.15;;;1.90;;
67363;SDS011;54250;45.572;38.086;2023-05-15T06:05:04;9.57;;;1.80;;
67363;SDS011;54250;45.572;38.086;2023-05-15T06:07:32;6.38;;;1.48;;
67363;SDS011;54250;45.572;38.086;2023-05-15T06:09:58;5.55;;;1.67;;
67363;SDS011;54250;45.572;38.086;2023-05-15T06:12:24;5.88;;;1.45;;
67363;SDS011;54250;45.572;38.086;2023-05-15T06:14:52;2.40;;;1.52;;
67363;SDS011;54250;45.572;38.086;2023-05-15T06:17:18;2.50;;;1.58;;
67363;SDS011;54250;45.572;38.086;2023-05-15T06:19:44;5.97;;;1.63;;
67363;SDS011;54250;45.572;38.086;2023-05-15T06:22:10;3.70;;;1.50;;
67363;SDS011;54250;45.572;38.086;2023-05-15T06:24:36;7.43;;;1.60;;
67363;SDS011;54250;45.572;38.086;2023-05-15T06:27:02;4.35;;;1.40;;
67363;SDS011;54250;45.572;38.086;2023-05-15T06:29:28;4.68;;;1.48;;
67363;SDS011;54250;45.572;38.086;2023-05-15T06:31:54;10.23;;;1.52;;
67363;SDS011;54250;45.572;38.086;2023-05-15T06:34:20;2.25;;;1.42;;
67363;SDS011;54250;45.572;38.086;2023-05-15T06:36:47;5.47;;;1.23;;
67363;SDS011;54250;45.572;38.086;2023-05-15T06:39:13;2.25;;;1.27;;
67363;SDS011;54250;45.572;38.086;2023-05-15T06:41:39;2.35;;;1.38;;
67363;SDS011;54250;45.572;38.086;2023-05-15T06:44:10;2.83;;;1.13;;
67363;SDS011;54250;45.572;38.086;2023-05-15T06:46:36;4.95;;;1.20;;
67363;SDS011;54250;45.572;38.086;2023-05-15T06:49:02;2.13;;;1.30;;
67363;SDS011;54250;45.572;38.086;2023-05-15T06:51:28;10.48;;;1.88;;
67363;SDS011;54250;45.572;38.086;2023-05-15T06:53:55;2.47;;;1.23;;
67363;SDS011;54250;45.572;38.086;2023-05-15T06:56:21;6.03;;;1.10;;
67363;SDS011;54250;45.572;38.086;2023-05-15T06:58:47;6.47;;;1.30;;
67363;SDS011;54250;45.572;38.086;2023-05-15T07:01:13;5.47;;;1.20;;
67363;SDS011;54250;45.572;38.086;2023-05-15T07:03:39;9.60;;;2.05;;
67363;SDS011;54250;45.572;38.086;2023-05-15T07:06:07;2.13;;;0.93;;
67363;SDS011;54250;45.572;38.086;2023-05-15T07:08:33;2.28;;;1.40;;
67363;SDS011;54250;45.572;38.086;2023-05-15T07:10:59;1.77;;;0.98;;
67363;SDS011;54250;45.572;38.086;2023-05-15T07:13:25;1.40;;;1.00;;
67363;SDS011;54250;45.572;38.086;2023-05-15T07:15:51;2.58;;;1.20;;
67363;SDS011;54250;45.572;38.086;2023-05-15T07:18:17;7.65;;;1.50;;
67363;SDS011;54250;45.572;38.086;2023-05-15T07:20:43;1.17;;;1.08;;
67363;SDS011;54250;45.572;38.086;2023-05-15T07:23:09;5.30;;;1.48;;
67363;SDS011;54250;45.572;38.086;2023-05-15T07:25:35;3.47;;;1.30;;
67363;SDS011;54250;45.572;38.086;2023-05-15T07:28:01;3.50;;;1.25;;
67363;SDS011;54250;45.572;38.086;2023-05-15T07:30:27;3.45;;;1.00;;
67363;SDS011;54250;45.572;38.086;2023-05-15T07:32:53;3.38;;;0.88;;
67363;SDS011;54250;45.572;38.086;2023-05-15T07:35:19;3.13;;;1.40;;
67363;SDS011;54250;45.572;38.086;2023-05-15T07:37:45;5.07;;;1.48;;
67363;SDS011;54250;45.572;38.086;2023-05-15T07:40:11;5.72;;;1.30;;
67363;SDS011;54250;45.572;38.086;2023-05-15T07:42:38;11.77;;;1.50;;
67363;SDS011;54250;45.572;38.086;2023-05-15T07:45:04;1.10;;;1.00;;
67363;SDS011;54250;45.572;38.086;2023-05-15T07:47:31;7.32;;;1.20;;
67363;SDS011;54250;45.572;38.086;2023-05-15T07:49:57;4.45;;;1.23;;
67363;SDS011;54250;45.572;38.086;2023-05-15T07:52:23;7.03;;;1.40;;
67363;SDS011;54250;45.572;38.086;2023-05-15T07:54:49;6.93;;;1.13;;
67363;SDS011;54250;45.572;38.086;2023-05-15T07:57:15;3.30;;;1.05;;
67363;SDS011;54250;45.572;38.086;2023-05-15T07:59:41;7.53;;;1.30;;
67363;SDS011;54250;45.572;38.086;2023-05-15T08:02:07;2.38;;;1.02;;
67363;SDS011;54250;45.572;38.086;2023-05-15T08:04:33;16.05;;;1.35;;
67363;SDS011;54250;45.572;38.086;2023-05-15T08:06:59;4.95;;;1.25;;
67363;SDS011;54250;45.572;38.086;2023-05-15T08:09:25;8.80;;;1.30;;
67363;SDS011;54250;45.572;38.086;2023-05-15T08:11:54;8.02;;;1.58;;
67363;SDS011;54250;45.572;38.086;2023-05-15T08:14:20;3.25;;;1.20;;
67363;SDS011;54250;45.572;38.086;2023-05-15T08:16:48;2.50;;;1.00;;
67363;SDS011;54250;45.572;38.086;2023-05-15T08:19:15;7.72;;;1.50;;
67363;SDS011;54250;45.572;38.086;2023-05-15T08:21:41;2.92;;;1.00;;
67363;SDS011;54250;45.572;38.086;2023-05-15T08:24:07;5.03;;;1.10;;
67363;SDS011;54250;45.572;38.086;2023-05-15T08:26:33;3.83;;;1.30;;
67363;SDS011;54250;45.572;38.086;2023-05-15T08:29:00;4.70;;;1.02;;
67363;SDS011;54250;45.572;38.086;2023-05-15T08:31:26;2.05;;;1.05;;
67363;SDS011;54250;45.572;38.086;2023-05-15T08:33:52;10.38;;;1.30;;
67363;SDS011;54250;45.572;38.086;2023-05-15T08:36:18;3.28;;;1.10;;
67363;SDS011;54250;45.572;38.086;2023-05-15T08:38:44;4.20;;;1.13;;
67363;SDS011;54250;45.572;38.086;2023-05-15T08:41:11;2.20;;;1.10;;
67363;SDS011;54250;45.572;38.086;2023-05-15T08:43:46;6.47;;;1.27;;
67363;SDS011;54250;45.572;38.086;2023-05-15T08:46:14;5.43;;;1.30;;
67363;SDS011;54250;45.572;38.086;2023-05-15T08:48:40;6.97;;;1.42;;
67363;SDS011;54250;45.572;38.086;2023-05-15T08:51:07;3.38;;;1.25;;
67363;SDS011;54250;45.572;38.086;2023-05-15T08:53:35;9.35;;;1.30;;
67363;SDS011;54250;45.572;38.086;2023-05-15T08:56:01;8.30;;;1.30;;
67363;SDS011;54250;45.572;38.086;2023-05-15T08:58:28;3.83;;;1.35;;
67363;SDS011;54250;45.572;38.086;2023-05-15T09:00:55;6.05;;;2.10;;
67363;SDS011;54250;45.572;38.086;2023-05-15T09:03:21;5.25;;;1.25;;
67363;SDS011;54250;45.572;38.086;2023-05-15T09:05:48;1.75;;;1.30;;
67363;SDS011;54250;45.572;38.086;2023-05-15T09:08:17;4.15;;;1.38;;
67363;SDS011;54250;45.572;38.086;2023-05-15T09:10:46;10.30;;;1.50;;
67363;SDS011;54250;45.572;38.086;2023-05-15T09:13:13;4.43;;;1.70;;
67363;SDS011;54250;45.572;38.086;2023-05-15T09:15:39;2.80;;;1.40;;
67363;SDS011;54250;45.572;38.086;2023-05-15T09:18:06;5.55;;;1.48;;
67363;SDS011;54250;45.572;38.086;2023-05-15T09:20:35;7.30;;;1.40;;
67363;SDS011;54250;45.572;38.086;2023-05-15T09:23:03;3.20;;;1.10;;
67363;SDS011;54250;45.572;38.086;2023-05-15T09:25:31;4.38;;;1.45;;
67363;SDS011;54250;45.572;38.086;2023-05-15T09:27:58;6.07;;;1.35;;
67363;SDS011;54250;45.572;38.086;2023-05-15T09:30:25;5.32;;;1.30;;
67363;SDS011;54250;45.572;38.086;2023-05-15T09:32:52;5.22;;;1.55;;
67363;SDS011;54250;45.572;38.086;2023-05-15T09:37:56;10.00;;;1.45;;
67363;SDS011;54250;45.572;38.086;2023-05-15T09:40:29;1.30;;;1.20;;
67363;SDS011;54250;45.572;38.086;2023-05-15T09:42:56;6.47;;;1.23;;
67363;SDS011;54250;45.572;38.086;2023-05-15T09:45:23;2.92;;;1.25;;
67363;SDS011;54250;45.572;38.086;2023-05-15T09:47:51;5.13;;;1.50;;
67363;SDS011;54250;45.572;38.086;2023-05-15T09:50:21;6.05;;;1.52;;
67363;SDS011;54250;45.572;38.086;2023-05-15T09:52:49;3.00;;;1.30;;
67363;SDS011;54250;45.572;38.086;2023-05-15T09:55:16;3.03;;;1.00;;
67363;SDS011;54250;45.572;38.086;2023-05-15T09:57:44;6.10;;;1.25;;
67363;SDS011;54250;45.572;38.086;2023-05-15T10:00:31;10.75;;;1.50;;
67363;SDS011;54250;45.572;38.086;2023-05-15T10:02:57;3.15;;;1.17;;
67363;SDS011;54250;45.572;38.086;2023-05-15T10:05:29;2.70;;;1.30;;
67363;SDS011;54250;45.572;38.086;2023-05-15T10:07:56;1.65;;;1.10;;
67363;SDS011;54250;45.572;38.086;2023-05-15T10:10:24;6.28;;;1.13;;
67363;SDS011;54250;45.572;38.086;2023-05-15T10:12:51;14.18;;;1.52;;
67363;SDS011;54250;45.572;38.086;2023-05-15T10:15:18;3.05;;;1.52;;
67363;SDS011;54250;45.572;38.086;2023-05-15T10:17:49;2.80;;;1.13;;
67363;SDS011;54250;45.572;38.086;2023-05-15T10:20:16;7.55;;;1.25;;
67363;SDS011;54250;45.572;38.086;2023-05-15T10:22:45;10.82;;;1.25;;
67363;SDS011;54250;45.572;38.086;2023-05-15T10:28:01;3.25;;;1.40;;
67363;SDS011;54250;45.572;38.086;2023-05-15T10:30:28;5.35;;;1.30;;
67363;SDS011;54250;45.572;38.086;2023-05-15T10:32:55;5.53;;;0.90;;
67363;SDS011;54250;45.572;38.086;2023-05-15T10:35:23;2.67;;;1.15;;
67363;SDS011;54250;45.572;38.086;2023-05-15T10:37:50;1.52;;;1.15;;
67363;SDS011;54250;45.572;38.086;2023-05-15T10:40:16;9.02;;;1.17;;
67363;SDS011;54250;45.572;38.086;2023-05-15T10:42:44;4.00;;;1.33;;
67363;SDS011;54250;45.572;38.086;2023-05-15T10:45:11;2.75;;;1.15;;
67363;SDS011;54250;45.572;38.086;2023-05-15T10:47:38;11.98;;;1.63;;
67363;SDS011;54250;45.572;38.086;2023-05-15T10:50:06;5.40;;;1.30;;
67363;SDS011;54250;45.572;38.086;2023-05-15T10:52:36;6.03;;;1.23;;
67363;SDS011;54250;45.572;38.086;2023-05-15T10:55:07;4.53;;;1.42;;
67363;SDS011;54250;45.572;38.086;2023-05-15T10:57:34;11.15;;;1.35;;
67363;SDS011;54250;45.572;38.086;2023-05-15T11:00:01;6.25;;;1.50;;
67363;SDS011;54250;45.572;38.086;2023-05-15T11:02:32;14.38;;;2.15;;
67363;SDS011;54250;45.572;38.086;2023-05-15T11:05:03;5.45;;;1.85;;
67363;SDS011;54250;45.572;38.086;2023-05-15T11:07:29;4.97;;;1.85;;
67363;SDS011;54250;45.572;38.086;2023-05-15T11:09:56;7.88;;;2.53;;
67363;SDS011;54250;45.572;38.086;2023-05-15T11:12:26;9.07;;;3.03;;
67363;SDS011;54250;45.572;38.086;2023-05-15T11:15:22;3.78;;;1.55;;
67363;SDS011;54250;45.572;38.086;2023-05-15T11:18:01;7.60;;;1.98;;
67363;SDS011;54250;45.572;38.086;2023-05-15T11:20:31;10.10;;;2.30;;
67363;SDS011;54250;45.572;38.086;2023-05-15T11:22:58;17.15;;;3.47;;
67363;SDS011;54250;45.572;38.086;2023-05-15T11:25:31;9.82;;;4.40;;
67363;SDS011;54250;45.572;38.086;2023-05-15T11:27:57;10.57;;;3.42;;
67363;SDS011;54250;45.572;38.086;2023-05-15T11:30:38;20.95;;;4.78;;
67363;SDS011;54250;45.572;38.086;2023-05-15T11:35:44;5.97;;;2.10;;
67363;SDS011;54250;45.572;38.086;2023-05-15T11:38:18;11.98;;;3.67;;
67363;SDS011;54250;45.572;38.086;2023-05-15T11:43:30;24.60;;;5.03;;
67363;SDS011;54250;45.572;38.086;2023-05-15T11:46:06;30.15;;;5.97;;
67363;SDS011;54250;45.572;38.086;2023-05-15T11:48:41;21.00;;;7.32;;
67363;SDS011;54250;45.572;38.086;2023-05-15T11:51:21;19.42;;;7.10;;
67363;SDS011;54250;45.572;38.086;2023-05-15T11:53:49;14.80;;;5.75;;
67363;SDS011;54250;45.572;38.086;2023-05-15T11:56:20;18.42;;;4.13;;
67363;SDS011;54250;45.572;38.086;2023-05-15T11:58:53;13.40;;;5.18;;
67363;SDS011;54250;45.572;38.086;2023-05-15T12:01:23;14.35;;;4.50;;
67363;SDS011;54250;45.572;38.086;2023-05-15T12:03:50;23.38;;;5.32;;
67363;SDS011;54250;45.572;38.086;2023-05-15T12:06:18;11.43;;;3.90;;
67363;SDS011;54250;45.572;38.086;2023-05-15T12:08:48;13.00;;;4.38;;
67363;SDS011;54250;45.572;38.086;2023-05-15T12:11:17;8.77;;;4.15;;
67363;SDS011;54250;45.572;38.086;2023-05-15T12:13:49;10.50;;;3.83;;
67363;SDS011;54250;45.572;38.086;2023-05-15T12:16:22;21.58;;;3.80;;
67363;SDS011;54250;45.572;38.086;2023-05-15T12:18:50;5.43;;;2.22;;
67363;SDS011;54250;45.572;38.086;2023-05-15T12:21:16;3.15;;;1.40;;
67363;SDS011;54250;45.572;38.086;2023-05-15T12:23:49;13.73;;;1.50;;
67363;SDS011;54250;45.572;38.086;2023-05-15T12:26:17;4.93;;;1.63;;
67363;SDS011;54250;45.572;38.086;2023-05-15T12:28:45;1.95;;;1.10;;
67363;SDS011;54250;45.572;38.086;2023-05-15T12:31:11;8.27;;;1.40;;
67363;SDS011;54250;45.572;38.086;2023-05-15T12:33:38;7.55;;;1.17;;
67363;SDS011;54250;45.572;38.086;2023-05-15T12:36:04;5.97;;;1.42;;
67363;SDS011;54250;45.572;38.086;2023-05-15T12:38:30;5.22;;;1.20;;
67363;SDS011;54250;45.572;38.086;2023-05-15T12:40:59;2.40;;;1.23;;
67363;SDS011;54250;45.572;38.086;2023-05-15T12:43:27;13.32;;;1.42;;
67363;SDS011;54250;45.572;38.086;2023-05-15T12:45:58;2.50;;;1.30;;
67363;SDS011;54250;45.572;38.086;2023-05-15T12:48:30;9.85;;;1.35;;
67363;SDS011;54250;45.572;38.086;2023-05-15T12:51:03;9.18;;;1.50;;
67363;SDS011;54250;45.572;38.086;2023-05-15T12:53:31;21.58;;;1.70;;
67363;SDS011;54250;45.572;38.086;2023-05-15T12:55:58;6.88;;;2.50;;
67363;SDS011;54250;45.572;38.086;2023-05-15T12:58:25;3.25;;;1.10;;
67363;SDS011;54250;45.572;38.086;2023-05-15T13:00:52;5.95;;;1.42;;
67363;SDS011;54250;45.572;38.086;2023-05-15T13:03:19;4.95;;;1.27;;
67363;SDS011;54250;45.572;38.086;2023-05-15T13:05:46;3.92;;;1.60;;
67363;SDS011;54250;45.572;38.086;2023-05-15T13:08:16;4.63;;;1.10;;
67363;SDS011;54250;45.572;38.086;2023-05-15T13:10:43;40.65;;;2.75;;
67363;SDS011;54250;45.572;38.086;2023-05-15T13:13:10;9.50;;;2.45;;
67363;SDS011;54250;45.572;38.086;2023-05-15T13:18:10;4.35;;;1.00;;
67363;SDS011;54250;45.572;38.086;2023-05-15T13:20:42;9.35;;;1.45;;
67363;SDS011;54250;45.572;38.086;2023-05-15T13:23:15;14.93;;;1.50;;
67363;SDS011;54250;45.572;38.086;2023-05-15T13:25:42;1.50;;;0.95;;
67363;SDS011;54250;45.572;38.086;2023-05-15T13:28:09;2.03;;;1.13;;
67363;SDS011;54250;45.572;38.086;2023-05-15T13:30:36;24.25;;;2.20;;
67363;SDS011;54250;45.572;38.086;2023-05-15T13:33:06;8.90;;;1.83;;
67363;SDS011;54250;45.572;38.086;2023-05-15T13:35:34;1.77;;;1.20;;
67363;SDS011;54250;45.572;38.086;2023-05-15T13:38:01;3.13;;;1.10;;
67363;SDS011;54250;45.572;38.086;2023-05-15T13:40:27;3.25;;;1.27;;
67363;SDS011;54250;45.572;38.086;2023-05-15T13:42:53;3.30;;;1.20;;
67363;SDS011;54250;45.572;38.086;2023-05-15T13:45:19;22.58;;;2.30;;
67363;SDS011;54250;45.572;38.086;2023-05-15T13:47:45;5.28;;;1.70;;
67363;SDS011;54250;45.572;38.086;2023-05-15T13:50:12;7.35;;;1.58;;
67363;SDS011;54250;45.572;38.086;2023-05-15T13:52:39;18.67;;;2.40;;
67363;SDS011;54250;45.572;38.086;2023-05-15T13:55:06;16.52;;;2.15;;
67363;SDS011;54250;45.572;38.086;2023-05-15T13:57:36;25.27;;;2.53;;
67363;SDS011;54250;45.572;38.086;2023-05-15T14:00:04;9.18;;;1.67;;
67363;SDS011;54250;45.572;38.086;2023-05-15T14:02:37;4.93;;;2.10;;
67363;SDS011;54250;45.572;38.086;2023-05-15T14:05:04;6.85;;;2.85;;
67363;SDS011;54250;45.572;38.086;2023-05-15T14:07:32;2.72;;;1.58;;
67363;SDS011;54250;45.572;38.086;2023-05-15T14:09:59;10.98;;;1.88;;
67363;SDS011;54250;45.572;38.086;2023-05-15T14:12:26;16.83;;;1.75;;
67363;SDS011;54250;45.572;38.086;2023-05-15T14:14:52;9.98;;;1.77;;
67363;SDS011;54250;45.572;38.086;2023-05-15T14:17:18;25.77;;;2.42;;
67363;SDS011;54250;45.572;38.086;2023-05-15T14:19:44;11.98;;;1.65;;
67363;SDS011;54250;45.572;38.086;2023-05-15T14:22:10;18.35;;;1.95;;
67363;SDS011;54250;45.572;38.086;2023-05-15T14:24:36;6.32;;;1.85;;
67363;SDS011;54250;45.572;38.086;2023-05-15T14:27:02;9.77;;;1.67;;
67363;SDS011;54250;45.572;38.086;2023-05-15T14:29:28;11.63;;;1.83;;
67363;SDS011;54250;45.572;38.086;2023-05-15T14:31:54;5.18;;;1.55;;
67363;SDS011;54250;45.572;38.086;2023-05-15T14:34:21;18.58;;;2.05;;
67363;SDS011;54250;45.572;38.086;2023-05-15T14:36:48;3.72;;;1.77;;
67363;SDS011;54250;45.572;38.086;2023-05-15T14:39:14;19.90;;;2.40;;
67363;SDS011;54250;45.572;38.086;2023-05-15T14:41:41;18.05;;;2.47;;
67363;SDS011;54250;45.572;38.086;2023-05-15T14:44:07;14.90;;;2.10;;
67363;SDS011;54250;45.572;38.086;2023-05-15T14:46:33;12.85;;;2.33;;
67363;SDS011;54250;45.572;38.086;2023-05-15T14:49:02;12.43;;;2.53;;
67363;SDS011;54250;45.572;38.086;2023-05-15T14:51:30;21.83;;;2.25;;
67363;SDS011;54250;45.572;38.086;2023-05-15T14:53:56;13.80;;;2.22;;
67363;SDS011;54250;45.572;38.086;2023-05-15T14:56:23;4.13;;;1.67;;
67363;SDS011;54250;45.572;38.086;2023-05-15T14:58:49;5.30;;;1.88;;
67363;SDS011;54250;45.572;38.086;2023-05-15T15:01:16;9.80;;;1.80;;